Time;durP1;ratioP1;P1;durP2;ratioP2;P2;SDS_P1;SDS_P2;PMS_P1;PMS_P2;Temp;Humidity;BMP_temperature;BMP_pressure;BME280_temperature;BME280_humidity;BME280_pressure;Samples;Min_cycle;Max_cycle;Signal;HPM_P1;HPM_P2
2022/01/26 00:06:38;;;;;;;21.33;9.15;;;;;;;-1.25;100.00;100891.63;4989878;28;20049;-60
2022/01/26 00:09:04;;;;;;;45.25;13.63;;;;;;;-1.21;100.00;100887.78;4989088;28;20042;-60
2022/01/26 00:11:32;;;;;;;41.10;12.95;;;;;;;-1.29;100.00;100882.31;4965201;28;20165;-59
2022/01/26 00:13:59;;;;;;;36.28;12.05;;;;;;;-1.32;100.00;100886.03;4985986;28;20030;-60
2022/01/26 00:18:53;;;;;;;41.00;12.43;;;;;;;-1.34;100.00;100880.06;4988674;28;20488;-60
2022/01/26 00:21:30;;;;;;;18.92;8.48;;;;;;;-1.38;100.00;100876.00;4988708;28;20053;-59
2022/01/26 00:26:33;;;;;;;38.45;13.00;;;;;;;-1.32;100.00;100885.22;4984125;28;20035;-60
2022/01/26 00:38:33;;;;;;;34.92;12.23;;;;;;;-1.36;100.00;100891.69;4991424;28;20480;-60
2022/01/26 00:39:53;;;;;;;27.70;10.32;;;;;;;-1.24;100.00;100893.31;4989731;28;20513;-60
2022/01/26 00:42:19;;;;;;;39.53;11.68;;;;;;;-1.20;100.00;100900.00;4989148;28;20054;-59
2022/01/26 00:44:45;;;;;;;41.72;13.82;;;;;;;-1.18;100.00;100905.13;4988979;28;20038;-59
2022/01/26 00:47:11;;;;;;;41.83;12.93;;;;;;;-1.14;100.00;100910.00;4976606;28;20051;-59
2022/01/26 00:49:36;;;;;;;38.60;11.80;;;;;;;-1.13;100.00;100906.41;4978552;28;20596;-60
2022/01/26 00:52:05;;;;;;;27.95;9.27;;;;;;;-1.19;100.00;100896.41;4987863;28;20420;-60
2022/01/26 00:54:31;;;;;;;33.35;11.60;;;;;;;-1.16;100.00;100896.13;5006662;28;20040;-60
2022/01/26 00:56:56;;;;;;;37.28;12.07;;;;;;;-1.16;100.00;100892.69;4994687;28;20046;-60
2022/01/26 00:59:22;;;;;;;44.47;13.35;;;;;;;-1.20;100.00;100889.47;4993518;28;20042;-59
2022/01/26 01:01:47;;;;;;;39.70;13.13;;;;;;;-1.22;100.00;100891.41;4983808;28;20049;-60
2022/01/26 01:04:13;;;;;;;45.25;13.25;;;;;;;-1.17;100.00;100883.94;4992046;28;20033;-60
2022/01/26 01:06:46;;;;;;;45.65;13.50;;;;;;;-1.15;100.00;100887.31;4988965;28;20471;-59
2022/01/26 01:09:12;;;;;;;48.08;12.95;;;;;;;-1.11;100.00;100879.97;4994210;28;20435;-60
2022/01/26 01:11:37;;;;;;;43.63;13.82;;;;;;;-1.07;100.00;100886.66;4993266;28;20104;-60
2022/01/26 01:14:03;;;;;;;42.88;14.02;;;;;;;-0.98;100.00;100882.44;4994311;28;20042;-59
2022/01/26 01:16:29;;;;;;;38.47;13.07;;;;;;;-0.96;100.00;100886.59;4982625;28;20050;-60
2022/01/26 01:19:03;;;;;;;43.33;13.98;;;;;;;-0.91;100.00;100876.53;4993400;28;20034;-60
2022/01/26 01:22:02;;;;;;;31.65;12.10;;;;;;;-0.90;100.00;100874.72;4991798;28;20264;-60
2022/01/26 01:34:04;;;;;;;41.35;15.05;;;;;;;-0.92;100.00;100881.94;4994044;28;20068;-60
2022/01/26 01:36:30;;;;;;;36.72;13.45;;;;;;;-0.82;100.00;100888.09;4992946;28;20031;-60
2022/01/26 01:38:55;;;;;;;35.50;10.50;;;;;;;-0.88;100.00;100889.41;4993352;28;20034;-60
2022/01/26 01:41:21;;;;;;;35.15;12.77;;;;;;;-0.87;100.00;100890.28;4997607;28;20073;-59
2022/01/26 01:43:47;;;;;;;35.20;14.10;;;;;;;-0.80;100.00;100891.44;4996853;28;20049;-59
2022/01/26 01:46:12;;;;;;;34.40;12.93;;;;;;;-0.81;100.00;100900.28;4992687;28;20042;-59
2022/01/26 01:48:38;;;;;;;34.45;11.73;;;;;;;-0.80;100.00;100894.06;5005377;28;20436;-60
2022/01/26 01:51:07;;;;;;;38.53;13.10;;;;;;;-0.87;100.00;100890.28;4986468;28;20527;-60
2022/01/26 01:53:40;;;;;;;42.63;14.50;;;;;;;-0.82;100.00;100892.50;4997419;28;20030;-59
2022/01/26 01:56:06;;;;;;;34.17;12.57;;;;;;;-0.73;100.00;100891.75;4992137;28;20890;-60
2022/01/26 01:58:32;;;;;;;38.13;14.27;;;;;;;-0.84;100.00;100887.38;5006617;28;20033;-60
2022/01/26 02:00:57;;;;;;;35.83;12.93;;;;;;;-0.81;100.00;100879.22;4986745;28;20043;-60
2022/01/26 02:03:24;;;;;;;33.50;13.38;;;;;;;-0.77;100.00;100885.09;4979125;28;20022;-60
2022/01/26 02:05:49;;;;;;;39.22;12.63;;;;;;;-0.74;100.00;100890.09;4980866;28;20037;-60
2022/01/26 02:08:15;;;;;;;39.38;13.40;;;;;;;-0.70;100.00;100889.72;4992381;28;20077;-60
2022/01/26 02:10:41;;;;;;;35.75;13.40;;;;;;;-0.63;100.00;100886.53;4982034;28;20042;-59
2022/01/26 02:13:15;;;;;;;30.95;12.38;;;;;;;-0.70;100.00;100881.81;4995374;28;20022;-60
2022/01/26 02:15:49;;;;;;;33.33;11.82;;;;;;;-0.66;100.00;100880.56;4979643;28;20050;-60
2022/01/26 03:04:18;;;;;;;31.45;11.88;;;;;;;-0.43;100.00;100859.34;4990217;28;20030;-60
2022/01/26 03:06:53;;;;;;;28.25;12.20;;;;;;;-0.46;100.00;100856.97;4986089;28;20041;-60
2022/01/26 03:09:25;;;;;;;34.15;12.18;;;;;;;-0.41;100.00;100860.03;4988290;28;20166;-60
2022/01/26 03:11:51;;;;;;;29.50;11.35;;;;;;;-0.38;100.00;100865.03;4990440;28;20045;-59
2022/01/26 03:14:34;;;;;;;29.20;11.18;;;;;;;-0.37;100.00;100864.09;4994758;28;20031;-59
2022/01/26 03:17:09;;;;;;;31.38;12.48;;;;;;;-0.32;100.00;100869.81;4979102;28;20318;-60
2022/01/26 03:19:42;;;;;;;34.50;13.43;;;;;;;-0.36;100.00;100873.66;4990779;28;20030;-60
2022/01/26 03:35:16;;;;;;;25.45;10.45;;;;;;;-0.30;100.00;100869.66;4985617;28;20472;-60
2022/01/26 03:37:50;;;;;;;29.52;11.45;;;;;;;-0.34;100.00;100858.56;4989578;28;20049;-60
2022/01/26 03:40:16;;;;;;;26.85;12.07;;;;;;;-0.24;100.00;100861.25;4985910;28;20034;-60
2022/01/26 03:42:41;;;;;;;27.45;11.38;;;;;;;-0.27;100.00;100862.34;4985240;28;20434;-60
2022/01/26 03:45:07;;;;;;;34.90;12.48;;;;;;;-0.30;100.00;100861.75;4984186;28;20042;-59
2022/01/26 03:47:32;;;;;;;31.90;13.25;;;;;;;-0.26;100.00;100855.25;4994167;28;20472;-60
2022/01/26 03:49:58;;;;;;;33.53;14.32;;;;;;;-0.27;100.00;100867.59;4987750;28;20173;-59
2022/01/26 03:52:23;;;;;;;32.10;13.18;;;;;;;-0.26;100.00;100864.00;4986975;28;20050;-60
2022/01/26 03:54:49;;;;;;;32.05;14.55;;;;;;;-0.25;100.00;100855.13;5002733;28;20045;-60
2022/01/26 03:57:14;;;;;;;32.72;13.73;;;;;;;-0.23;100.00;100845.28;4987449;28;20043;-60
2022/01/26 03:59:40;;;;;;;34.22;14.80;;;;;;;-0.24;100.00;100838.34;4992437;28;20520;-60
2022/01/26 04:02:06;;;;;;;35.25;14.73;;;;;;;-0.24;100.00;100837.53;4986214;28;20066;-60
2022/01/26 04:04:37;;;;;;;38.15;14.85;;;;;;;-0.20;100.00;100843.34;4991341;28;20030;-60
2022/01/26 04:07:03;;;;;;;40.88;14.80;;;;;;;-0.22;100.00;100840.88;4991943;28;20069;-60
2022/01/26 04:09:28;;;;;;;36.88;14.32;;;;;;;-0.30;100.00;100833.63;4992474;28;20367;-60
2022/01/26 04:11:54;;;;;;;37.55;14.38;;;;;;;-0.32;100.00;100832.91;4987338;28;20049;-60
2022/01/26 04:14:23;;;;;;;35.25;14.52;;;;;;;-0.32;100.00;100819.75;4990780;28;20053;-60
2022/01/26 04:16:49;;;;;;;34.33;14.27;;;;;;;-0.35;100.00;100824.44;4989576;28;20112;-60
2022/01/26 04:19:15;;;;;;;33.95;12.95;;;;;;;-0.43;100.00;100831.19;4985423;28;20026;-60
2022/01/26 04:24:26;;;;;;;35.33;14.65;;;;;;;-0.48;100.00;100832.56;4988893;28;20468;-60
2022/01/26 04:29:27;;;;;;;44.55;15.15;;;;;;;-0.54;100.00;100848.91;4994944;28;20033;-59
2022/01/26 04:31:53;;;;;;;36.13;14.10;;;;;;;-0.46;100.00;100849.06;4991182;28;20121;-60
2022/01/26 04:34:19;;;;;;;41.90;14.30;;;;;;;-0.47;100.00;100842.16;4987551;28;20034;-59
2022/01/26 04:37:34;;;;;;;36.58;14.82;;;;;;;-0.50;100.00;100830.06;4983736;28;20038;-60
2022/01/26 04:39:40;;;;;;;34.10;13.93;;;;;;;-0.52;100.00;100836.44;4982036;28;20432;-60
2022/01/26 04:42:14;;;;;;;40.42;14.32;;;;;;;-0.51;100.00;100838.09;4992138;28;20158;-59
2022/01/26 04:44:46;;;;;;;39.75;15.48;;;;;;;-0.47;100.00;100831.59;4995036;28;20025;-60
2022/01/26 04:47:12;;;;;;;44.78;14.38;;;;;;;-0.49;100.00;100839.63;4994206;28;20129;-60
2022/01/26 04:49:37;;;;;;;36.10;14.23;;;;;;;-0.56;100.00;100827.13;4995394;28;20034;-60
2022/01/26 04:52:03;;;;;;;37.10;13.07;;;;;;;-0.55;100.00;100826.16;4990854;28;20579;-62
2022/01/26 04:54:29;;;;;;;42.95;14.82;;;;;;;-0.58;100.00;100813.25;4996333;28;20037;-60
2022/01/26 04:56:55;;;;;;;41.05;15.40;;;;;;;-0.63;100.00;100803.09;4991289;28;20038;-60
2022/01/26 04:59:20;;;;;;;42.88;15.55;;;;;;;-0.73;100.00;100802.22;4997214;28;20535;-60
2022/01/26 05:01:45;;;;;;;44.17;15.05;;;;;;;-0.81;100.00;100794.16;4996510;28;20106;-61
2022/01/26 05:04:11;;;;;;;44.63;16.27;;;;;;;-0.77;100.00;100785.03;4993628;28;20030;-60
2022/01/26 05:06:36;;;;;;;53.35;15.85;;;;;;;-0.81;100.00;100778.34;4985245;28;20034;-60
2022/01/26 05:09:03;;;;;;;41.80;15.02;;;;;;;-0.78;100.00;100778.09;4994616;28;20068;-60
2022/01/26 05:11:35;;;;;;;49.30;16.15;;;;;;;-0.74;100.00;100763.69;4996797;28;20444;-60
2022/01/26 05:14:01;;;;;;;47.20;16.27;;;;;;;-0.69;100.00;100778.13;4998415;28;20033;-60
2022/01/26 05:16:26;;;;;;;51.67;17.10;;;;;;;-0.66;100.00;100800.72;4994978;28;20034;-60
2022/01/26 05:18:53;;;;;;;45.78;14.85;;;;;;;-0.66;100.00;100808.63;4993823;28;20518;-60
2022/01/26 05:21:19;;;;;;;46.63;15.85;;;;;;;-0.58;100.00;100810.59;4988819;28;20042;-60
2022/01/26 05:23:44;;;;;;;50.35;15.80;;;;;;;-0.56;100.00;100812.16;4988086;28;20019;-60
2022/01/26 05:26:09;;;;;;;57.08;17.23;;;;;;;-0.49;100.00;100804.56;4992254;28;20042;-60
2022/01/26 05:28:35;;;;;;;38.03;15.35;;;;;;;-0.49;100.00;100815.09;4994426;28;20030;-60
2022/01/26 05:31:00;;;;;;;52.47;15.73;;;;;;;-0.51;100.00;100807.31;4991548;28;20077;-61
2022/01/26 05:33:26;;;;;;;45.78;16.25;;;;;;;-0.47;100.00;100818.44;5007112;28;20371;-60
2022/01/26 05:35:51;;;;;;;55.63;15.50;;;;;;;-0.44;100.00;100797.09;4987737;28;20050;-60
2022/01/26 05:38:17;;;;;;;39.92;15.63;;;;;;;-0.36;100.00;100796.44;4988587;28;20054;-60
2022/01/26 05:40:42;;;;;;;39.85;15.90;;;;;;;-0.41;100.00;100799.44;4991322;28;20445;-60
2022/01/26 05:43:07;;;;;;;43.38;16.13;;;;;;;-0.49;100.00;100799.28;4992382;28;20046;-59
2022/01/26 05:45:36;;;;;;;41.40;15.57;;;;;;;-0.48;100.00;100816.75;4990276;28;20516;-60
2022/01/26 05:48:03;;;;;;;45.78;16.38;;;;;;;-0.51;100.00;100809.13;4993598;28;20065;-60
2022/01/26 05:50:31;;;;;;;34.45;15.00;;;;;;;-0.48;100.00;100811.47;4991809;28;20065;-59
2022/01/26 05:52:56;;;;;;;42.03;16.60;;;;;;;-0.45;100.00;100811.22;4986720;28;20044;-59
2022/01/26 05:55:22;;;;;;;44.05;16.40;;;;;;;-0.44;100.00;100812.91;4989902;28;20050;-60
2022/01/26 05:57:47;;;;;;;40.22;16.20;;;;;;;-0.42;100.00;100826.78;4996554;28;20049;-60
2022/01/26 06:00:13;;;;;;;40.17;14.68;;;;;;;-0.42;100.00;100829.41;4991851;28;20043;-60
2022/01/26 06:02:38;;;;;;;37.05;15.63;;;;;;;-0.37;100.00;100824.59;4991896;28;20049;-60
2022/01/26 06:05:04;;;;;;;50.15;16.70;;;;;;;-0.29;100.00;100853.72;4986501;28;20187;-60
2022/01/26 06:07:29;;;;;;;94.70;38.10;;;;;;;-0.31;100.00;100850.38;4985983;28;20030;-60
2022/01/26 06:09:55;;;;;;;49.85;19.23;;;;;;;-0.18;100.00;100854.59;4993473;28;20065;-60
2022/01/26 06:12:20;;;;;;;106.22;42.17;;;;;;;-0.31;100.00;100850.38;4990757;28;20034;-60
2022/01/26 06:14:46;;;;;;;40.95;17.88;;;;;;;-0.31;100.00;100868.81;4984442;28;20038;-60
2022/01/26 06:17:11;;;;;;;73.38;27.88;;;;;;;-0.20;100.00;100883.75;4991260;28;20128;-60
2022/01/26 06:19:37;;;;;;;39.05;15.18;;;;;;;-0.16;100.00;100894.84;4989322;28;20101;-60
2022/01/26 06:22:02;;;;;;;52.22;22.02;;;;;;;-0.31;100.00;100882.00;4986892;28;20042;-60
2022/01/26 06:24:28;;;;;;;44.58;18.13;;;;;;;-0.26;100.00;100890.34;4990364;28;20565;-60
2022/01/26 06:26:53;;;;;;;40.30;16.98;;;;;;;-0.25;100.00;100881.50;4988440;28;20061;-59
2022/01/26 06:29:19;;;;;;;41.35;15.55;;;;;;;-0.23;100.00;100879.53;4997632;28;20038;-60
2022/01/26 06:31:44;;;;;;;43.88;16.02;;;;;;;-0.26;100.00;100874.53;4990825;28;21468;-60
2022/01/26 06:34:10;;;;;;;43.50;15.30;;;;;;;-0.25;100.00;100870.94;4984805;28;20042;-60
2022/01/26 06:36:37;;;;;;;38.08;16.10;;;;;;;-0.20;100.00;100885.50;4980024;28;20121;-60
2022/01/26 06:39:03;;;;;;;41.05;17.50;;;;;;;-0.27;100.00;100872.88;4989209;28;20030;-60
2022/01/26 06:41:28;;;;;;;41.75;15.75;;;;;;;-0.35;100.00;100862.16;4998104;28;20494;-59
2022/01/26 06:44:18;;;;;;;44.08;16.33;;;;;;;-0.32;100.00;100863.72;4997834;28;20480;-59
2022/01/26 06:46:55;;;;;;;33.78;14.88;;;;;;;-0.35;100.00;100875.34;4987792;28;20038;-59
2022/01/26 06:51:50;;;;;;;37.35;15.43;;;;;;;-0.26;100.00;100877.16;4985743;28;20046;-60
2022/01/26 06:54:16;;;;;;;32.70;14.40;;;;;;;-0.23;100.00;100866.34;4985468;28;20169;-61
2022/01/26 06:56:41;;;;;;;38.00;15.13;;;;;;;-0.36;100.00;100867.56;4993386;28;20030;-61
2022/01/26 06:59:07;;;;;;;39.67;15.80;;;;;;;-0.33;100.00;100856.75;4991545;28;20662;-61
2022/01/26 07:01:33;;;;;;;37.60;14.63;;;;;;;-0.28;100.00;100855.38;4989130;28;20132;-58
2022/01/26 07:03:58;;;;;;;43.22;15.75;;;;;;;-0.29;100.00;100859.00;4987905;28;20042;-60
2022/01/26 07:06:23;;;;;;;42.03;16.15;;;;;;;-0.27;100.00;100843.06;4987275;28;20640;-60
2022/01/26 07:08:49;;;;;;;40.40;15.80;;;;;;;-0.35;100.00;100837.59;4983066;28;20041;-60
2022/01/26 07:11:14;;;;;;;49.47;17.58;;;;;;;-0.28;100.00;100860.66;4991022;28;20045;-60
2022/01/26 07:13:41;;;;;;;36.40;15.10;;;;;;;-0.30;100.00;100857.34;4991234;28;20037;-60
2022/01/26 07:21:34;;;;;;;43.05;15.88;;;;;;;-0.16;100.00;100842.13;4988564;28;20076;-60
2022/01/26 07:24:00;;;;;;;39.35;15.48;;;;;;;-0.12;100.00;100848.81;4968170;28;20030;-60
2022/01/26 07:26:28;;;;;;;38.47;15.80;;;;;;;-0.23;100.00;100829.47;4990484;28;20038;-61
2022/01/26 07:29:08;;;;;;;37.97;15.65;;;;;;;-0.26;100.00;100831.53;4991943;28;20175;-60
2022/01/26 07:31:35;;;;;;;29.75;11.93;;;;;;;-0.37;100.00;100834.28;4985075;28;20879;-60
2022/01/26 07:34:01;;;;;;;37.75;15.02;;;;;;;-0.46;100.00;100834.09;4991538;28;20038;-60
2022/01/26 07:36:26;;;;;;;45.38;16.55;;;;;;;-0.36;100.00;100836.78;4991653;28;20062;-60
2022/01/26 07:38:54;;;;;;;41.85;15.43;;;;;;;-0.33;100.00;100849.69;4985308;28;20041;-60
2022/01/26 07:41:20;;;;;;;41.97;16.20;;;;;;;-0.31;100.00;100857.47;5005901;28;20053;-60
2022/01/26 07:43:45;;;;;;;39.35;15.00;;;;;;;-0.28;100.00;100850.13;4983690;28;20508;-60
2022/01/26 07:46:11;;;;;;;40.30;16.48;;;;;;;-0.30;100.00;100838.91;4994421;28;20140;-60
2022/01/26 07:48:37;;;;;;;36.30;15.18;;;;;;;-0.38;100.00;100828.16;4985335;28;20034;-60
2022/01/26 07:51:02;;;;;;;32.53;13.57;;;;;;;-0.34;100.00;100840.13;4989328;28;20046;-60
2022/01/26 07:53:28;;;;;;;33.80;14.75;;;;;;;-0.43;100.00;100846.16;4986687;28;20426;-60
2022/01/26 07:55:56;;;;;;;39.03;14.02;;;;;;;-0.43;100.00;100851.44;4985405;28;20403;-60
2022/01/26 07:58:25;;;;;;;30.23;13.77;;;;;;;-0.39;100.00;100850.22;4995070;28;20026;-60
2022/01/26 08:00:50;;;;;;;33.75;14.10;;;;;;;-0.41;100.00;100860.03;4983665;28;20038;-60
2022/01/26 08:03:17;;;;;;;34.15;14.77;;;;;;;-0.36;100.00;100859.66;4988676;28;20036;-60
2022/01/26 08:05:45;;;;;;;31.70;13.25;;;;;;;-0.43;100.00;100847.00;4992336;28;20369;-60
2022/01/26 08:08:10;;;;;;;36.00;14.82;;;;;;;-0.41;100.00;100857.41;4999169;28;20034;-60
2022/01/26 08:10:36;;;;;;;23.48;10.20;;;;;;;-0.54;100.00;100848.91;4989532;28;20038;-60
2022/01/26 08:13:02;;;;;;;34.47;13.40;;;;;;;-0.35;100.00;100846.38;4993866;28;20388;-61
2022/01/26 08:15:27;;;;;;;25.02;11.70;;;;;;;-0.41;100.00;100849.50;4989404;28;20070;-60
2022/01/26 08:17:53;;;;;;;29.70;13.65;;;;;;;-0.35;100.00;100856.91;4985010;28;20049;-60
2022/01/26 08:20:21;;;;;;;25.70;10.85;;;;;;;-0.32;100.00;100864.53;4981262;28;20503;-60
2022/01/26 08:22:49;;;;;;;32.47;13.63;;;;;;;-0.32;100.00;100854.00;4988126;28;20049;-60
2022/01/26 08:25:15;;;;;;;24.30;10.93;;;;;;;-0.45;100.00;100845.47;4982762;28;20019;-60
2022/01/26 08:27:44;;;;;;;31.38;12.20;;;;;;;-0.36;100.00;100844.69;4990489;28;20026;-60
2022/01/26 08:30:14;;;;;;;16.15;9.38;;;;;;;-0.44;100.00;100855.03;4985346;28;20057;-61
2022/01/26 08:32:40;;;;;;;29.70;12.38;;;;;;;-0.27;100.00;100864.97;4993945;28;20039;-60
2022/01/26 08:35:06;;;;;;;29.70;11.70;;;;;;;-0.25;100.00;100856.91;5001460;28;20034;-61
2022/01/26 08:37:31;;;;;;;34.35;13.73;;;;;;;-0.29;100.00;100837.91;4987751;28;20033;-60
2022/01/26 08:39:57;;;;;;;24.02;11.90;;;;;;;-0.29;100.00;100837.09;4983797;28;20611;-59
2022/01/26 08:42:22;;;;;;;42.15;12.77;;;;;;;-0.26;100.00;100837.66;4988317;28;20042;-60
2022/01/26 08:44:47;;;;;;;21.23;9.30;;;;;;;-0.29;100.00;100848.47;4991166;28;20026;-61
2022/01/26 08:47:13;;;;;;;32.97;12.20;;;;;;;-0.14;100.00;100848.09;4987290;28;20258;-61
2022/01/26 08:49:38;;;;;;;21.38;9.13;;;;;;;-0.19;100.00;100855.56;4989288;28;20026;-59
2022/01/26 08:52:04;;;;;;;33.65;12.60;;;;;;;-0.14;100.00;100863.91;4988758;28;20038;-59
2022/01/26 08:54:29;;;;;;;36.42;13.88;;;;;;;-0.15;100.00;100878.91;4985195;28;20054;-60
2022/01/26 08:56:55;;;;;;;35.83;13.85;;;;;;;-0.15;100.00;100884.19;4986011;28;20045;-59
2022/01/26 08:59:21;;;;;;;32.50;13.57;;;;;;;-0.10;100.00;100878.47;4990402;28;20490;-59
2022/01/26 09:01:47;;;;;;;32.65;14.43;;;;;;;-0.04;100.00;100873.53;4987527;28;20054;-59
2022/01/26 09:04:12;;;;;;;36.13;14.18;;;;;;;-0.02;100.00;100876.03;4987126;28;20584;-60
2022/01/26 09:06:49;;;;;;;26.65;11.23;;;;;;;-0.03;100.00;100874.34;4996924;28;20756;-60
2022/01/26 09:09:16;;;;;;;34.55;14.63;;;;;;;-0.03;100.00;100869.06;4988818;28;20053;-60
2022/01/26 09:11:42;;;;;;;35.67;12.70;;;;;;;0.01;100.00;100881.03;4967642;28;20097;-60
2022/01/26 09:14:10;;;;;;;31.73;11.98;;;;;;;-0.02;100.00;100870.75;5005106;28;20033;-60
2022/01/26 09:16:36;;;;;;;37.60;15.38;;;;;;;-0.01;100.00;100867.16;4986347;28;20066;-60
2022/01/26 09:19:20;;;;;;;31.30;13.15;;;;;;;0.01;100.00;100854.66;5009796;28;20594;-61
2022/01/26 09:21:46;;;;;;;37.80;15.48;;;;;;;0.05;100.00;100858.72;4986602;28;20054;-61
2022/01/26 09:24:11;;;;;;;35.85;13.20;;;;;;;0.08;100.00;100871.63;4969385;28;20040;-60
2022/01/26 09:26:38;;;;;;;31.23;11.70;;;;;;;0.18;100.00;100884.84;4993360;28;20419;-60
2022/01/26 09:29:04;;;;;;;36.10;15.20;;;;;;;0.24;100.00;100891.38;4991540;28;20511;-61
2022/01/26 09:31:29;;;;;;;42.00;15.77;;;;;;;0.29;100.00;100897.91;4990131;28;20042;-60
2022/01/26 09:33:55;;;;;;;28.13;9.10;;;;;;;0.21;100.00;100901.22;5002260;28;20033;-60
2022/01/26 09:36:24;;;;;;;42.80;14.98;;;;;;;0.34;100.00;100895.69;4989620;28;20381;-60
2022/01/26 09:38:49;;;;;;;34.67;13.68;;;;;;;0.37;98.87;100902.50;4982902;28;20430;-61
2022/01/26 09:41:15;;;;;;;38.33;13.85;;;;;;;0.47;98.55;100916.53;4990744;28;20070;-60
2022/01/26 09:43:45;;;;;;;31.50;14.10;;;;;;;0.54;97.40;100915.03;4988965;28;20034;-61
2022/01/26 09:46:12;;;;;;;37.83;14.93;;;;;;;0.59;97.13;100923.38;4985068;28;20096;-61
2022/01/26 09:48:38;;;;;;;40.15;15.70;;;;;;;0.62;96.56;100923.13;4991361;28;20053;-61
2022/01/26 09:51:07;;;;;;;35.33;16.60;;;;;;;0.61;95.01;100915.34;4996199;28;20133;-61
2022/01/26 09:53:35;;;;;;;42.92;15.40;;;;;;;0.80;96.43;100925.06;4987917;28;20026;-61
2022/01/26 09:56:03;;;;;;;46.85;17.52;;;;;;;0.70;95.19;100921.59;4999666;28;20557;-65
2022/01/26 09:58:29;;;;;;;40.80;16.10;;;;;;;0.78;94.91;100912.03;4999063;28;20120;-60
2022/01/26 10:01:07;;;;;;;36.67;15.18;;;;;;;0.83;95.34;100915.09;4994323;28;20042;-61
2022/01/26 10:03:36;;;;;;;40.20;17.70;;;;;;;0.82;94.51;100920.47;4987835;28;20041;-62
2022/01/26 10:06:07;;;;;;;44.30;19.23;;;;;;;0.80;94.14;100930.34;4993001;28;20558;-61
2022/01/26 10:17:17;;;;;;;47.85;19.00;;;;;;;0.48;95.61;100928.78;4982435;28;20045;-61
2022/01/26 10:19:19;;;;;;;45.47;17.23;;;;;;;0.45;95.49;100930.84;4991610;28;20050;-59
2022/01/26 10:21:49;;;;;;;49.28;18.15;;;;;;;0.39;95.53;100934.84;4983963;28;20130;-62
2022/01/26 10:24:16;;;;;;;42.25;17.20;;;;;;;0.39;95.95;100924.31;4985623;28;20092;-60
2022/01/26 10:26:49;;;;;;;47.67;17.00;;;;;;;0.49;94.78;100930.44;4984592;28;20064;-61
2022/01/26 10:29:15;;;;;;;46.13;17.20;;;;;;;0.51;94.63;100932.94;4985449;28;20097;-59
2022/01/26 10:31:41;;;;;;;41.63;17.27;;;;;;;0.47;94.31;100929.72;4984178;28;20084;-61
2022/01/26 10:34:22;;;;;;;45.33;17.40;;;;;;;0.46;95.14;100919.34;4987799;28;20066;-61
2022/01/26 10:36:51;;;;;;;;;;;;;;;0.49;95.07;100930.44;4981151;28;20475;-61
2022/01/26 10:39:24;;;;;;;40.10;14.43;;;;;;;0.47;94.46;100919.19;4987937;28;19957;-60
2022/01/26 10:41:52;;;;;;;42.88;14.10;;;;;;;0.54;93.90;100925.59;4986312;28;20057;-61
2022/01/26 10:44:34;;;;;;;35.65;14.38;;;;;;;0.59;93.25;100928.66;4983317;28;20559;-61
2022/01/26 10:47:01;;;;;;;36.22;15.20;;;;;;;0.59;92.84;100933.09;4986216;28;20108;-61
2022/01/26 10:52:28;;;;;;;40.17;15.20;;;;;;;0.67;93.13;100924.50;4985220;28;20053;-59
2022/01/26 10:54:53;;;;;;;47.45;18.30;;;;;;;0.55;92.93;100929.91;4965136;28;20034;-59
2022/01/26 10:57:19;;;;;;;30.77;13.95;;;;;;;0.46;91.34;100927.25;4985334;28;20049;-59
2022/01/26 10:59:46;;;;;;;29.98;13.80;;;;;;;0.48;90.91;100918.22;4984708;28;20496;-59
2022/01/26 11:02:12;;;;;;;29.45;13.15;;;;;;;0.40;91.24;100913.63;4984865;28;20400;-60
2022/01/26 11:04:39;;;;;;;24.60;12.82;;;;;;;0.30;91.50;100919.81;4985207;28;20033;-59
2022/01/26 11:07:06;;;;;;;26.77;12.38;;;;;;;0.34;91.09;100919.44;4978937;28;20038;-59
2022/01/26 11:09:33;;;;;;;28.73;12.93;;;;;;;0.26;91.03;100911.38;4989722;28;20026;-60
2022/01/26 11:11:59;;;;;;;37.10;15.18;;;;;;;0.34;90.64;100913.31;4967937;28;20046;-60
2022/01/26 11:14:25;;;;;;;39.78;15.32;;;;;;;0.33;90.98;100917.78;4984905;28;20064;-60
2022/01/26 11:17:00;;;;;;;39.15;15.95;;;;;;;0.39;91.03;100914.59;4979851;28;20480;-59
2022/01/26 11:19:25;;;;;;;24.65;12.55;;;;;;;0.34;90.40;100918.59;4986559;28;20270;-59
2022/01/26 11:21:51;;;;;;;41.65;16.27;;;;;;;0.41;90.88;100922.38;4981711;28;20034;-59
2022/01/26 11:24:21;;;;;;;49.75;17.20;;;;;;;0.30;90.39;100918.06;4982766;28;20374;-59
2022/01/26 11:27:04;;;;;;;24.20;13.20;;;;;;;0.17;90.19;100928.81;4984330;28;20041;-59
2022/01/26 11:29:33;;;;;;;26.92;12.85;;;;;;;0.33;89.55;100916.94;4987050;28;20392;-60
2022/01/26 11:32:12;;;;;;;26.90;12.05;;;;;;;0.56;89.40;100918.38;4982902;28;20041;-59
2022/01/26 11:34:38;;;;;;;22.42;10.82;;;;;;;0.62;89.03;100917.84;4982420;28;20536;-60
2022/01/26 11:37:07;;;;;;;24.63;11.50;;;;;;;0.84;90.51;100908.00;4983686;28;20031;-60
2022/01/26 11:45:02;;;;;;;22.85;11.55;;;;;;;0.80;87.96;100896.03;4982201;28;20057;-60
2022/01/26 11:45:12;;;;;;;24.83;11.75;;;;;;;0.80;87.78;100893.38;4980069;28;20099;-60
2022/01/26 11:47:39;;;;;;;22.75;10.65;;;;;;;0.77;87.58;100898.94;4984777;28;20395;-59
2022/01/26 11:50:14;;;;;;;26.88;11.60;;;;;;;0.84;87.82;100906.19;4982396;28;20034;-60
2022/01/26 11:52:40;;;;;;;23.60;11.80;;;;;;;0.85;87.14;100905.22;4984388;28;20034;-59
2022/01/26 11:55:36;;;;;;;28.65;12.60;;;;;;;0.85;87.75;100901.75;4976291;28;20034;-59
2022/01/26 11:58:19;;;;;;;26.98;12.32;;;;;;;0.79;87.94;100889.91;4988643;28;20038;-59
2022/01/26 12:01:12;;;;;;;24.92;13.00;;;;;;;0.77;87.82;100880.47;4984145;28;20042;-61
2022/01/26 12:03:48;;;;;;;22.70;11.10;;;;;;;0.83;87.85;100883.41;4964948;28;20046;-61
2022/01/26 12:06:19;;;;;;;25.75;12.52;;;;;;;0.67;88.52;100892.84;4987929;28;20511;-59
2022/01/26 12:08:45;;;;;;;25.15;12.00;;;;;;;0.86;88.44;100900.78;4990980;28;20388;-60
2022/01/26 12:11:12;;;;;;;26.25;11.88;;;;;;;0.83;88.70;100904.53;4985294;28;20046;-59
2022/01/26 12:13:39;;;;;;;25.52;12.27;;;;;;;0.85;87.89;100907.88;4984709;28;20125;-61
2022/01/26 12:16:18;;;;;;;28.45;13.38;;;;;;;0.71;87.70;100904.78;4985468;28;20058;-61
2022/01/26 12:38:02;;;;;;;30.75;11.32;;;;;;;0.86;87.46;100895.50;4980627;28;20448;-60
2022/01/26 12:43:43;;;;;;;31.02;12.20;;;;;;;0.95;86.97;100901.72;4983324;28;20061;-61
2022/01/26 12:46:29;;;;;;;29.33;11.95;;;;;;;1.05;87.80;100907.88;4981771;28;20118;-61
2022/01/26 12:49:08;;;;;;;35.22;13.20;;;;;;;1.15;87.99;100913.13;4984148;28;20129;-61
2022/01/26 12:51:59;;;;;;;31.23;12.77;;;;;;;1.04;87.78;100917.56;4983218;28;20038;-61
2022/01/26 12:54:26;;;;;;;29.15;13.05;;;;;;;1.07;88.38;100914.69;4977927;28;20045;-61
2022/01/26 12:57:02;;;;;;;35.20;14.10;;;;;;;1.04;88.30;100914.09;4987331;28;20053;-60
2022/01/26 12:59:27;;;;;;;34.05;13.65;;;;;;;1.12;88.51;100908.13;4979407;28;20040;-61
2022/01/26 13:01:53;;;;;;;31.63;14.05;;;;;;;1.16;88.93;100901.59;5005630;28;20046;-60
2022/01/26 13:04:18;;;;;;;35.88;14.35;;;;;;;1.25;89.59;100892.84;4991632;28;20034;-60
2022/01/26 13:06:51;;;;;;;37.15;15.70;;;;;;;1.25;89.13;100887.56;4989942;28;20038;-60
2022/01/26 13:09:18;;;;;;;37.78;14.43;;;;;;;1.21;89.65;100889.63;4982620;28;20092;-60
2022/01/26 13:11:48;;;;;;;34.63;13.13;;;;;;;1.20;89.71;100879.19;5000188;28;20684;-60
2022/01/26 13:14:35;;;;;;;159.07;80.53;;;;;;;1.15;89.23;100876.16;4992941;28;20038;-61
2022/01/26 13:30:27;;;;;;;45.33;18.02;;;;;;;1.16;90.18;100867.25;4984550;28;20035;-61
2022/01/26 13:40:56;;;;;;;43.88;15.75;;;;;;;1.36;88.56;100854.84;4994715;28;20042;-61
2022/01/26 13:51:32;;;;;;;45.58;14.50;;;;;;;1.26;87.91;100857.50;4982696;28;20602;-60
2022/01/26 13:54:14;;;;;;;42.28;15.73;;;;;;;1.25;87.34;100853.22;4980223;28;20031;-60
2022/01/26 13:56:55;;;;;;;36.17;13.75;;;;;;;1.22;86.85;100853.47;4991969;28;20273;-60
2022/01/26 13:59:34;;;;;;;46.75;16.85;;;;;;;1.19;86.76;100859.06;4997289;28;20068;-60